sensor_id;sensor_type;location;lat;lon;timestamp;P1;durP1;ratioP1;P2;durP2;ratioP2
64832;SDS011;51290;45.060;38.948;2023-03-21T00:01:12;21.92;;;7.70;;
64832;SDS011;51290;45.060;38.948;2023-03-21T00:03:38;17.13;;;7.63;;
64832;SDS011;51290;45.060;38.948;2023-03-21T00:06:08;16.45;;;9.25;;
64832;SDS011;51290;45.060;38.948;2023-03-21T00:08:36;18.95;;;9.23;;
64832;SDS011;51290;45.060;38.948;2023-03-21T00:11:03;13.43;;;7.47;;
64832;SDS011;51290;45.060;38.948;2023-03-21T00:13:31;15.77;;;6.90;;
64832;SDS011;51290;45.060;38.948;2023-03-21T00:18:45;14.50;;;7.03;;
64832;SDS011;51290;45.060;38.948;2023-03-21T00:21:14;14.88;;;7.85;;
64832;SDS011;51290;45.060;38.948;2023-03-21T00:23:42;23.13;;;10.23;;
64832;SDS011;51290;45.060;38.948;2023-03-21T00:26:10;17.17;;;7.03;;
64832;SDS011;51290;45.060;38.948;2023-03-21T00:28:40;15.52;;;8.80;;
64832;SDS011;51290;45.060;38.948;2023-03-21T00:31:07;20.10;;;8.23;;
64832;SDS011;51290;45.060;38.948;2023-03-21T00:33:34;16.35;;;7.95;;
64832;SDS011;51290;45.060;38.948;2023-03-21T00:36:03;22.02;;;10.23;;
64832;SDS011;51290;45.060;38.948;2023-03-21T00:38:32;16.65;;;8.23;;
64832;SDS011;51290;45.060;38.948;2023-03-21T00:40:58;19.67;;;9.30;;
64832;SDS011;51290;45.060;38.948;2023-03-21T00:43:24;15.45;;;8.90;;
64832;SDS011;51290;45.060;38.948;2023-03-21T00:45:54;15.63;;;9.43;;
64832;SDS011;51290;45.060;38.948;2023-03-21T00:48:25;22.05;;;8.48;;
64832;SDS011;51290;45.060;38.948;2023-03-21T00:50:53;20.90;;;8.25;;
64832;SDS011;51290;45.060;38.948;2023-03-21T00:53:21;16.35;;;8.68;;
64832;SDS011;51290;45.060;38.948;2023-03-21T00:55:48;18.27;;;7.57;;
64832;SDS011;51290;45.060;38.948;2023-03-21T00:58:14;20.08;;;8.27;;
64832;SDS011;51290;45.060;38.948;2023-03-21T01:00:40;25.52;;;8.38;;
64832;SDS011;51290;45.060;38.948;2023-03-21T01:03:09;17.75;;;8.40;;
64832;SDS011;51290;45.060;38.948;2023-03-21T01:05:38;12.60;;;6.93;;
64832;SDS011;51290;45.060;38.948;2023-03-21T01:08:24;10.18;;;5.85;;
64832;SDS011;51290;45.060;38.948;2023-03-21T01:10:52;13.15;;;7.63;;
64832;SDS011;51290;45.060;38.948;2023-03-21T01:13:20;10.32;;;5.65;;
64832;SDS011;51290;45.060;38.948;2023-03-21T01:15:52;19.63;;;6.82;;
64832;SDS011;51290;45.060;38.948;2023-03-21T01:18:21;18.83;;;8.02;;
64832;SDS011;51290;45.060;38.948;2023-03-21T01:20:51;12.95;;;5.97;;
64832;SDS011;51290;45.060;38.948;2023-03-21T01:23:18;12.80;;;4.28;;
64832;SDS011;51290;45.060;38.948;2023-03-21T01:25:46;14.45;;;7.10;;
64832;SDS011;51290;45.060;38.948;2023-03-21T01:28:13;8.25;;;5.05;;
64832;SDS011;51290;45.060;38.948;2023-03-21T01:30:43;6.65;;;4.60;;
64832;SDS011;51290;45.060;38.948;2023-03-21T01:33:13;12.10;;;5.57;;
64832;SDS011;51290;45.060;38.948;2023-03-21T01:35:40;13.77;;;4.93;;
64832;SDS011;51290;45.060;38.948;2023-03-21T01:38:07;9.45;;;5.32;;
64832;SDS011;51290;45.060;38.948;2023-03-21T01:40:36;7.25;;;4.72;;
64832;SDS011;51290;45.060;38.948;2023-03-21T01:43:35;9.57;;;4.40;;
64832;SDS011;51290;45.060;38.948;2023-03-21T01:49:33;10.18;;;5.95;;
64832;SDS011;51290;45.060;38.948;2023-03-21T01:52:33;5.68;;;3.50;;
64832;SDS011;51290;45.060;38.948;2023-03-21T01:55:05;8.50;;;4.65;;
64832;SDS011;51290;45.060;38.948;2023-03-21T01:57:50;8.68;;;3.78;;
64832;SDS011;51290;45.060;38.948;2023-03-21T02:00:20;5.38;;;2.80;;
64832;SDS011;51290;45.060;38.948;2023-03-21T02:02:58;4.20;;;3.00;;
64832;SDS011;51290;45.060;38.948;2023-03-21T02:06:00;4.65;;;2.75;;
64832;SDS011;51290;45.060;38.948;2023-03-21T02:08:40;1.75;;;1.42;;
64832;SDS011;51290;45.060;38.948;2023-03-21T02:11:11;5.40;;;3.35;;
64832;SDS011;51290;45.060;38.948;2023-03-21T02:13:40;5.35;;;2.08;;
64832;SDS011;51290;45.060;38.948;2023-03-21T02:16:11;2.80;;;1.73;;
64832;SDS011;51290;45.060;38.948;2023-03-21T02:18:52;3.25;;;1.95;;
64832;SDS011;51290;45.060;38.948;2023-03-21T02:21:50;1.75;;;1.50;;
64832;SDS011;51290;45.060;38.948;2023-03-21T02:24:39;2.88;;;1.10;;
64832;SDS011;51290;45.060;38.948;2023-03-21T02:27:25;1.75;;;1.42;;
64832;SDS011;51290;45.060;38.948;2023-03-21T02:41:02;1.88;;;1.40;;
64832;SDS011;51290;45.060;38.948;2023-03-21T02:43:38;1.35;;;1.25;;
64832;SDS011;51290;45.060;38.948;2023-03-21T02:46:14;4.57;;;1.42;;
64832;SDS011;51290;45.060;38.948;2023-03-21T02:49:06;0.82;;;0.80;;
64832;SDS011;51290;45.060;38.948;2023-03-21T02:51:33;1.05;;;0.95;;
64832;SDS011;51290;45.060;38.948;2023-03-21T02:54:03;1.10;;;1.00;;
64832;SDS011;51290;45.060;38.948;2023-03-21T02:56:34;1.63;;;1.52;;
64832;SDS011;51290;45.060;38.948;2023-03-21T02:59:03;1.30;;;1.20;;
64832;SDS011;51290;45.060;38.948;2023-03-21T03:01:31;0.73;;;0.73;;
64832;SDS011;51290;45.060;38.948;2023-03-21T03:03:59;3.22;;;2.00;;
64832;SDS011;51290;45.060;38.948;2023-03-21T03:06:48;5.97;;;2.17;;
64832;SDS011;51290;45.060;38.948;2023-03-21T03:12:26;7.55;;;3.97;;
64832;SDS011;51290;45.060;38.948;2023-03-21T03:17:48;6.38;;;4.05;;
64832;SDS011;51290;45.060;38.948;2023-03-21T03:20:24;7.65;;;4.25;;
64832;SDS011;51290;45.060;38.948;2023-03-21T03:25:43;7.35;;;4.13;;
64832;SDS011;51290;45.060;38.948;2023-03-21T03:28:16;6.90;;;3.70;;
64832;SDS011;51290;45.060;38.948;2023-03-21T03:30:46;5.25;;;3.88;;
64832;SDS011;51290;45.060;38.948;2023-03-21T03:33:13;3.92;;;2.85;;
64832;SDS011;51290;45.060;38.948;2023-03-21T03:35:42;4.00;;;2.47;;
64832;SDS011;51290;45.060;38.948;2023-03-21T03:38:11;4.47;;;2.80;;
64832;SDS011;51290;45.060;38.948;2023-03-21T03:40:48;8.23;;;3.15;;
64832;SDS011;51290;45.060;38.948;2023-03-21T03:43:43;2.78;;;2.20;;
64832;SDS011;51290;45.060;38.948;2023-03-21T03:46:16;5.13;;;4.20;;
64832;SDS011;51290;45.060;38.948;2023-03-21T03:48:53;3.60;;;2.65;;
64832;SDS011;51290;45.060;38.948;2023-03-21T03:51:24;5.20;;;2.63;;
64832;SDS011;51290;45.060;38.948;2023-03-21T03:54:23;4.32;;;2.85;;
64832;SDS011;51290;45.060;38.948;2023-03-21T03:57:11;6.13;;;3.35;;
64832;SDS011;51290;45.060;38.948;2023-03-21T03:59:42;3.95;;;2.35;;
64832;SDS011;51290;45.060;38.948;2023-03-21T04:02:36;10.63;;;2.38;;
64832;SDS011;51290;45.060;38.948;2023-03-21T04:05:02;3.05;;;2.30;;
64832;SDS011;51290;45.060;38.948;2023-03-21T04:07:29;4.82;;;1.98;;
64832;SDS011;51290;45.060;38.948;2023-03-21T04:09:58;5.50;;;2.85;;
64832;SDS011;51290;45.060;38.948;2023-03-21T04:12:25;4.10;;;3.15;;
64832;SDS011;51290;45.060;38.948;2023-03-21T04:15:10;2.75;;;2.15;;
64832;SDS011;51290;45.060;38.948;2023-03-21T04:17:39;3.17;;;2.35;;
64832;SDS011;51290;45.060;38.948;2023-03-21T04:20:05;5.93;;;3.42;;
64832;SDS011;51290;45.060;38.948;2023-03-21T04:22:32;2.10;;;1.92;;
64832;SDS011;51290;45.060;38.948;2023-03-21T04:24:59;2.63;;;2.20;;
64832;SDS011;51290;45.060;38.948;2023-03-21T04:27:27;4.30;;;2.38;;
64832;SDS011;51290;45.060;38.948;2023-03-21T04:30:17;6.95;;;2.45;;
64832;SDS011;51290;45.060;38.948;2023-03-21T04:32:54;2.47;;;1.67;;
64832;SDS011;51290;45.060;38.948;2023-03-21T04:35:23;1.63;;;1.52;;
64832;SDS011;51290;45.060;38.948;2023-03-21T04:37:49;2.88;;;2.15;;
64832;SDS011;51290;45.060;38.948;2023-03-21T04:40:16;1.92;;;1.75;;
64832;SDS011;51290;45.060;38.948;2023-03-21T04:42:43;3.28;;;1.75;;
64832;SDS011;51290;45.060;38.948;2023-03-21T04:45:11;3.28;;;2.42;;
64832;SDS011;51290;45.060;38.948;2023-03-21T04:47:38;2.10;;;1.90;;
64832;SDS011;51290;45.060;38.948;2023-03-21T04:50:05;2.90;;;1.95;;
64832;SDS011;51290;45.060;38.948;2023-03-21T04:52:32;7.07;;;2.67;;
64832;SDS011;51290;45.060;38.948;2023-03-21T04:54:58;1.75;;;1.25;;
64832;SDS011;51290;45.060;38.948;2023-03-21T04:57:25;1.55;;;1.45;;
64832;SDS011;51290;45.060;38.948;2023-03-21T04:59:51;2.92;;;1.88;;
64832;SDS011;51290;45.060;38.948;2023-03-21T05:02:17;3.08;;;1.83;;
64832;SDS011;51290;45.060;38.948;2023-03-21T05:04:43;8.68;;;1.23;;
64832;SDS011;51290;45.060;38.948;2023-03-21T05:07:09;1.50;;;1.40;;
64832;SDS011;51290;45.060;38.948;2023-03-21T05:09:36;1.00;;;1.00;;
64832;SDS011;51290;45.060;38.948;2023-03-21T05:12:02;3.45;;;1.40;;
64832;SDS011;51290;45.060;38.948;2023-03-21T05:14:31;1.20;;;1.20;;
64832;SDS011;51290;45.060;38.948;2023-03-21T05:16:57;1.05;;;0.98;;
64832;SDS011;51290;45.060;38.948;2023-03-21T05:19:28;0.80;;;0.80;;
64832;SDS011;51290;45.060;38.948;2023-03-21T05:22:04;1.90;;;1.15;;
64832;SDS011;51290;45.060;38.948;2023-03-21T05:24:31;1.70;;;1.13;;
64832;SDS011;51290;45.060;38.948;2023-03-21T05:26:59;1.25;;;1.20;;
64832;SDS011;51290;45.060;38.948;2023-03-21T05:29:30;3.45;;;0.90;;
64832;SDS011;51290;45.060;38.948;2023-03-21T05:32:03;1.50;;;1.40;;
64832;SDS011;51290;45.060;38.948;2023-03-21T05:34:30;1.50;;;1.08;;
64832;SDS011;51290;45.060;38.948;2023-03-21T05:36:57;1.10;;;0.95;;
64832;SDS011;51290;45.060;38.948;2023-03-21T05:39:28;5.45;;;2.70;;
64832;SDS011;51290;45.060;38.948;2023-03-21T05:42:06;1.13;;;1.13;;
64832;SDS011;51290;45.060;38.948;2023-03-21T05:44:32;2.13;;;1.88;;
64832;SDS011;51290;45.060;38.948;2023-03-21T05:47:00;4.25;;;1.55;;
64832;SDS011;51290;45.060;38.948;2023-03-21T05:49:36;0.90;;;0.82;;
64832;SDS011;51290;45.060;38.948;2023-03-21T05:52:02;0.93;;;0.93;;
64832;SDS011;51290;45.060;38.948;2023-03-21T05:54:29;1.40;;;0.80;;
64832;SDS011;51290;45.060;38.948;2023-03-21T05:56:56;2.47;;;1.92;;
64832;SDS011;51290;45.060;38.948;2023-03-21T05:59:41;3.22;;;2.38;;
64832;SDS011;51290;45.060;38.948;2023-03-21T06:02:07;3.90;;;2.72;;
64832;SDS011;51290;45.060;38.948;2023-03-21T06:04:33;3.33;;;2.42;;
64832;SDS011;51290;45.060;38.948;2023-03-21T06:06:59;2.15;;;1.70;;
64832;SDS011;51290;45.060;38.948;2023-03-21T06:09:25;2.35;;;2.13;;
64832;SDS011;51290;45.060;38.948;2023-03-21T06:11:56;4.18;;;2.58;;
64832;SDS011;51290;45.060;38.948;2023-03-21T06:14:49;2.42;;;1.98;;
64832;SDS011;51290;45.060;38.948;2023-03-21T06:17:22;9.35;;;4.68;;
64832;SDS011;51290;45.060;38.948;2023-03-21T06:19:55;3.90;;;2.58;;
64832;SDS011;51290;45.060;38.948;2023-03-21T06:22:35;3.83;;;2.58;;
64832;SDS011;51290;45.060;38.948;2023-03-21T06:25:02;2.47;;;2.10;;
64832;SDS011;51290;45.060;38.948;2023-03-21T06:27:29;3.20;;;2.08;;
64832;SDS011;51290;45.060;38.948;2023-03-21T06:29:55;2.38;;;1.80;;
64832;SDS011;51290;45.060;38.948;2023-03-21T06:32:25;4.38;;;3.25;;
64832;SDS011;51290;45.060;38.948;2023-03-21T06:34:59;4.53;;;3.20;;
64832;SDS011;51290;45.060;38.948;2023-03-21T06:37:26;5.97;;;3.65;;
64832;SDS011;51290;45.060;38.948;2023-03-21T06:39:52;9.27;;;4.20;;
64832;SDS011;51290;45.060;38.948;2023-03-21T06:42:19;7.85;;;4.38;;
64832;SDS011;51290;45.060;38.948;2023-03-21T06:44:46;17.55;;;6.60;;
64832;SDS011;51290;45.060;38.948;2023-03-21T06:47:14;4.72;;;3.25;;
64832;SDS011;51290;45.060;38.948;2023-03-21T06:49:42;4.70;;;3.10;;
64832;SDS011;51290;45.060;38.948;2023-03-21T06:52:10;3.42;;;2.15;;
64832;SDS011;51290;45.060;38.948;2023-03-21T06:54:37;2.85;;;2.15;;
64832;SDS011;51290;45.060;38.948;2023-03-21T06:57:09;2.17;;;1.88;;
64832;SDS011;51290;45.060;38.948;2023-03-21T06:59:37;1.88;;;1.77;;
64832;SDS011;51290;45.060;38.948;2023-03-21T07:02:12;2.05;;;1.55;;
64832;SDS011;51290;45.060;38.948;2023-03-21T07:04:45;2.28;;;1.48;;
64832;SDS011;51290;45.060;38.948;2023-03-21T07:07:16;1.45;;;1.30;;
64832;SDS011;51290;45.060;38.948;2023-03-21T07:09:42;3.72;;;1.67;;
64832;SDS011;51290;45.060;38.948;2023-03-21T07:12:08;2.20;;;1.77;;
64832;SDS011;51290;45.060;38.948;2023-03-21T07:15:02;4.10;;;2.20;;
64832;SDS011;51290;45.060;38.948;2023-03-21T07:17:29;1.33;;;1.15;;
64832;SDS011;51290;45.060;38.948;2023-03-21T07:19:55;6.60;;;1.48;;
64832;SDS011;51290;45.060;38.948;2023-03-21T07:22:22;5.28;;;3.15;;
64832;SDS011;51290;45.060;38.948;2023-03-21T07:24:48;3.45;;;1.50;;
64832;SDS011;51290;45.060;38.948;2023-03-21T07:27:15;2.92;;;2.10;;
64832;SDS011;51290;45.060;38.948;2023-03-21T07:29:44;2.45;;;1.98;;
64832;SDS011;51290;45.060;38.948;2023-03-21T07:32:12;2.50;;;1.85;;
64832;SDS011;51290;45.060;38.948;2023-03-21T07:34:38;1.88;;;1.38;;
64832;SDS011;51290;45.060;38.948;2023-03-21T07:37:04;1.95;;;1.13;;
64832;SDS011;51290;45.060;38.948;2023-03-21T07:39:31;1.48;;;1.30;;
64832;SDS011;51290;45.060;38.948;2023-03-21T07:41:59;2.78;;;2.25;;
64832;SDS011;51290;45.060;38.948;2023-03-21T07:44:36;1.02;;;0.90;;
64832;SDS011;51290;45.060;38.948;2023-03-21T07:47:03;3.60;;;1.52;;
64832;SDS011;51290;45.060;38.948;2023-03-21T07:49:30;2.58;;;1.50;;
64832;SDS011;51290;45.060;38.948;2023-03-21T07:51:56;1.52;;;1.33;;
64832;SDS011;51290;45.060;38.948;2023-03-21T07:54:24;1.70;;;1.40;;
64832;SDS011;51290;45.060;38.948;2023-03-21T07:56:53;1.30;;;1.20;;
64832;SDS011;51290;45.060;38.948;2023-03-21T07:59:19;1.02;;;0.98;;
64832;SDS011;51290;45.060;38.948;2023-03-21T08:01:45;1.17;;;1.08;;
64832;SDS011;51290;45.060;38.948;2023-03-21T08:04:11;1.98;;;1.48;;
64832;SDS011;51290;45.060;38.948;2023-03-21T08:06:38;1.52;;;1.15;;
64832;SDS011;51290;45.060;38.948;2023-03-21T08:09:04;1.40;;;1.30;;
64832;SDS011;51290;45.060;38.948;2023-03-21T08:11:30;1.02;;;0.98;;
64832;SDS011;51290;45.060;38.948;2023-03-21T08:13:57;2.15;;;1.42;;
64832;SDS011;51290;45.060;38.948;2023-03-21T08:16:23;0.90;;;0.90;;
64832;SDS011;51290;45.060;38.948;2023-03-21T08:18:49;1.83;;;1.52;;
64832;SDS011;51290;45.060;38.948;2023-03-21T08:21:15;0.80;;;0.80;;
64832;SDS011;51290;45.060;38.948;2023-03-21T08:23:42;1.73;;;1.33;;
64832;SDS011;51290;45.060;38.948;2023-03-21T08:26:08;1.25;;;1.15;;
64832;SDS011;51290;45.060;38.948;2023-03-21T08:28:34;1.20;;;1.10;;
64832;SDS011;51290;45.060;38.948;2023-03-21T08:31:05;2.65;;;1.20;;
64832;SDS011;51290;45.060;38.948;2023-03-21T08:33:33;1.88;;;1.25;;
64832;SDS011;51290;45.060;38.948;2023-03-21T08:35:59;0.85;;;0.80;;
64832;SDS011;51290;45.060;38.948;2023-03-21T08:38:25;2.67;;;1.42;;
64832;SDS011;51290;45.060;38.948;2023-03-21T08:40:54;2.22;;;1.55;;
64832;SDS011;51290;45.060;38.948;2023-03-21T08:43:21;1.35;;;1.20;;
64832;SDS011;51290;45.060;38.948;2023-03-21T08:45:48;1.27;;;1.00;;
64832;SDS011;51290;45.060;38.948;2023-03-21T08:48:14;3.03;;;1.33;;
64832;SDS011;51290;45.060;38.948;2023-03-21T08:50:40;1.48;;;1.30;;
64832;SDS011;51290;45.060;38.948;2023-03-21T08:53:06;2.47;;;1.55;;
64832;SDS011;51290;45.060;38.948;2023-03-21T08:55:32;1.20;;;1.10;;
64832;SDS011;51290;45.060;38.948;2023-03-21T08:57:59;1.08;;;1.00;;
64832;SDS011;51290;45.060;38.948;2023-03-21T09:00:25;1.42;;;1.33;;
64832;SDS011;51290;45.060;38.948;2023-03-21T09:02:52;1.10;;;1.02;;
64832;SDS011;51290;45.060;38.948;2023-03-21T09:05:20;1.13;;;0.82;;
64832;SDS011;51290;45.060;38.948;2023-03-21T09:07:47;1.50;;;1.17;;
64832;SDS011;51290;45.060;38.948;2023-03-21T09:10:15;2.80;;;1.58;;
64832;SDS011;51290;45.060;38.948;2023-03-21T09:12:43;3.25;;;1.38;;
64832;SDS011;51290;45.060;38.948;2023-03-21T09:15:10;1.10;;;1.00;;
64832;SDS011;51290;45.060;38.948;2023-03-21T09:17:37;0.85;;;0.85;;
64832;SDS011;51290;45.060;38.948;2023-03-21T09:20:12;1.75;;;1.50;;
64832;SDS011;51290;45.060;38.948;2023-03-21T09:22:45;2.58;;;1.73;;
64832;SDS011;51290;45.060;38.948;2023-03-21T09:25:16;1.30;;;1.13;;
64832;SDS011;51290;45.060;38.948;2023-03-21T09:27:44;1.00;;;0.98;;
64832;SDS011;51290;45.060;38.948;2023-03-21T09:30:11;1.60;;;1.42;;
64832;SDS011;51290;45.060;38.948;2023-03-21T09:32:39;0.93;;;0.93;;
64832;SDS011;51290;45.060;38.948;2023-03-21T09:35:06;0.40;;;0.40;;
64832;SDS011;51290;45.060;38.948;2023-03-21T09:37:34;2.13;;;1.15;;
64832;SDS011;51290;45.060;38.948;2023-03-21T09:40:02;2.22;;;1.30;;
64832;SDS011;51290;45.060;38.948;2023-03-21T09:45:30;2.70;;;0.95;;
64832;SDS011;51290;45.060;38.948;2023-03-21T09:47:59;3.17;;;1.17;;
64832;SDS011;51290;45.060;38.948;2023-03-21T09:50:34;0.55;;;0.55;;
64832;SDS011;51290;45.060;38.948;2023-03-21T09:53:03;0.82;;;0.82;;
64832;SDS011;51290;45.060;38.948;2023-03-21T09:55:32;0.77;;;0.77;;
64832;SDS011;51290;45.060;38.948;2023-03-21T09:58:05;1.42;;;1.33;;
64832;SDS011;51290;45.060;38.948;2023-03-21T10:00:45;1.58;;;0.95;;
64832;SDS011;51290;45.060;38.948;2023-03-21T10:03:28;1.23;;;1.20;;
64832;SDS011;51290;45.060;38.948;2023-03-21T10:05:59;14.13;;;2.13;;
64832;SDS011;51290;45.060;38.948;2023-03-21T10:08:31;0.77;;;0.68;;
64832;SDS011;51290;45.060;38.948;2023-03-21T10:13:53;0.98;;;0.82;;
64832;SDS011;51290;45.060;38.948;2023-03-21T10:16:32;2.20;;;1.10;;
64832;SDS011;51290;45.060;38.948;2023-03-21T10:19:02;2.58;;;1.33;;
64832;SDS011;51290;45.060;38.948;2023-03-21T10:21:34;1.60;;;1.27;;
64832;SDS011;51290;45.060;38.948;2023-03-21T10:24:03;2.58;;;1.15;;
64832;SDS011;51290;45.060;38.948;2023-03-21T10:26:30;1.30;;;1.20;;
64832;SDS011;51290;45.060;38.948;2023-03-21T10:28:57;1.05;;;1.05;;
64832;SDS011;51290;45.060;38.948;2023-03-21T10:31:26;1.40;;;1.15;;
64832;SDS011;51290;45.060;38.948;2023-03-21T10:33:55;1.23;;;1.13;;
64832;SDS011;51290;45.060;38.948;2023-03-21T10:36:26;1.25;;;1.05;;
64832;SDS011;51290;45.060;38.948;2023-03-21T10:38:59;1.98;;;1.77;;
64832;SDS011;51290;45.060;38.948;2023-03-21T10:41:29;2.83;;;1.47;;
64832;SDS011;51290;45.060;38.948;2023-03-21T10:44:30;1.42;;;0.98;;
64832;SDS011;51290;45.060;38.948;2023-03-21T10:46:54;1.02;;;0.93;;
64832;SDS011;51290;45.060;38.948;2023-03-21T10:49:22;3.55;;;1.15;;
64832;SDS011;51290;45.060;38.948;2023-03-21T10:51:52;1.50;;;1.27;;
64832;SDS011;51290;45.060;38.948;2023-03-21T10:54:21;1.42;;;1.10;;
64832;SDS011;51290;45.060;38.948;2023-03-21T10:57:06;1.25;;;0.80;;
64832;SDS011;51290;45.060;38.948;2023-03-21T10:59:52;3.03;;;1.48;;
64832;SDS011;51290;45.060;38.948;2023-03-21T11:02:27;1.23;;;0.90;;
64832;SDS011;51290;45.060;38.948;2023-03-21T11:04:57;1.53;;;1.37;;
64832;SDS011;51290;45.060;38.948;2023-03-21T11:10:50;1.73;;;1.50;;
64832;SDS011;51290;45.060;38.948;2023-03-21T11:13:23;0.88;;;0.88;;
64832;SDS011;51290;45.060;38.948;2023-03-21T11:18:24;0.77;;;0.77;;
64832;SDS011;51290;45.060;38.948;2023-03-21T11:20:54;2.10;;;1.58;;
64832;SDS011;51290;45.060;38.948;2023-03-21T11:23:27;3.67;;;2.30;;
64832;SDS011;51290;45.060;38.948;2023-03-21T11:25:54;4.72;;;1.45;;
64832;SDS011;51290;45.060;38.948;2023-03-21T11:28:23;1.60;;;1.30;;
64832;SDS011;51290;45.060;38.948;2023-03-21T11:30:58;1.77;;;1.50;;
64832;SDS011;51290;45.060;38.948;2023-03-21T11:33:31;3.92;;;1.95;;
64832;SDS011;51290;45.060;38.948;2023-03-21T11:36:02;4.47;;;1.77;;
64832;SDS011;51290;45.060;38.948;2023-03-21T11:38:29;3.13;;;1.52;;
64832;SDS011;51290;45.060;38.948;2023-03-21T11:41:00;1.30;;;1.17;;
64832;SDS011;51290;45.060;38.948;2023-03-21T11:43:34;1.83;;;1.63;;
64832;SDS011;51290;45.060;38.948;2023-03-21T11:48:29;1.63;;;1.45;;
64832;SDS011;51290;45.060;38.948;2023-03-21T11:51:09;2.00;;;1.55;;
64832;SDS011;51290;45.060;38.948;2023-03-21T11:53:37;4.47;;;2.25;;
64832;SDS011;51290;45.060;38.948;2023-03-21T12:02:07;5.47;;;1.98;;
64832;SDS011;51290;45.060;38.948;2023-03-21T12:13:18;2.92;;;1.63;;
64832;SDS011;51290;45.060;38.948;2023-03-21T12:19:14;2.42;;;2.03;;
64832;SDS011;51290;45.060;38.948;2023-03-21T12:24:30;26.02;;;16.58;;
64832;SDS011;51290;45.060;38.948;2023-03-21T12:40:43;3.28;;;1.58;;
64832;SDS011;51290;45.060;38.948;2023-03-21T12:43:49;1.98;;;1.55;;
64832;SDS011;51290;45.060;38.948;2023-03-21T12:46:23;1.90;;;1.42;;
64832;SDS011;51290;45.060;38.948;2023-03-21T12:49:14;5.47;;;2.22;;
64832;SDS011;51290;45.060;38.948;2023-03-21T12:51:56;1.90;;;1.70;;
64832;SDS011;51290;45.060;38.948;2023-03-21T12:54:36;2.33;;;1.83;;
64832;SDS011;51290;45.060;38.948;2023-03-21T12:57:25;5.88;;;2.83;;
64832;SDS011;51290;45.060;38.948;2023-03-21T13:02:36;2.67;;;1.92;;
64832;SDS011;51290;45.060;38.948;2023-03-21T13:10:42;2.88;;;1.70;;
64832;SDS011;51290;45.060;38.948;2023-03-21T13:13:11;1.63;;;1.35;;
64832;SDS011;51290;45.060;38.948;2023-03-21T13:15:52;3.25;;;2.40;;
64832;SDS011;51290;45.060;38.948;2023-03-21T13:21:37;4.15;;;2.00;;
64832;SDS011;51290;45.060;38.948;2023-03-21T13:26:46;4.28;;;2.45;;
64832;SDS011;51290;45.060;38.948;2023-03-21T13:31:46;5.72;;;2.50;;
64832;SDS011;51290;45.060;38.948;2023-03-21T13:34:14;1.83;;;1.50;;
64832;SDS011;51290;45.060;38.948;2023-03-21T13:36:43;7.15;;;2.63;;
64832;SDS011;51290;45.060;38.948;2023-03-21T13:39:23;3.83;;;2.40;;
64832;SDS011;51290;45.060;38.948;2023-03-21T13:41:51;2.50;;;1.63;;
64832;SDS011;51290;45.060;38.948;2023-03-21T13:44:22;2.72;;;1.70;;
64832;SDS011;51290;45.060;38.948;2023-03-21T13:47:52;2.22;;;1.98;;
64832;SDS011;51290;45.060;38.948;2023-03-21T13:53:21;3.40;;;2.20;;
64832;SDS011;51290;45.060;38.948;2023-03-21T13:56:08;5.93;;;1.80;;
64832;SDS011;51290;45.060;38.948;2023-03-21T13:58:38;1.67;;;1.53;;
64832;SDS011;51290;45.060;38.948;2023-03-21T14:04:11;1.67;;;1.58;;
64832;SDS011;51290;45.060;38.948;2023-03-21T14:12:11;11.70;;;2.20;;
64832;SDS011;51290;45.060;38.948;2023-03-21T14:14:42;4.93;;;2.33;;
64832;SDS011;51290;45.060;38.948;2023-03-21T14:17:12;3.97;;;2.00;;
64832;SDS011;51290;45.060;38.948;2023-03-21T14:19:40;3.30;;;1.92;;
64832;SDS011;51290;45.060;38.948;2023-03-21T14:22:10;2.92;;;1.98;;
64832;SDS011;51290;45.060;38.948;2023-03-21T14:24:45;6.38;;;2.35;;
64832;SDS011;51290;45.060;38.948;2023-03-21T14:27:24;2.28;;;1.33;;
64832;SDS011;51290;45.060;38.948;2023-03-21T14:29:55;1.85;;;1.63;;
64832;SDS011;51290;45.060;38.948;2023-03-21T14:32:23;3.33;;;2.10;;
64832;SDS011;51290;45.060;38.948;2023-03-21T14:34:52;5.18;;;1.75;;
64832;SDS011;51290;45.060;38.948;2023-03-21T14:37:27;3.42;;;1.77;;
64832;SDS011;51290;45.060;38.948;2023-03-21T14:39:59;3.88;;;1.85;;
64832;SDS011;51290;45.060;38.948;2023-03-21T14:42:26;3.65;;;2.03;;
64832;SDS011;51290;45.060;38.948;2023-03-21T14:44:58;3.88;;;2.10;;
64832;SDS011;51290;45.060;38.948;2023-03-21T14:47:28;6.95;;;2.70;;
64832;SDS011;51290;45.060;38.948;2023-03-21T14:49:56;3.97;;;2.30;;
64832;SDS011;51290;45.060;38.948;2023-03-21T14:52:29;3.17;;;1.63;;
64832;SDS011;51290;45.060;38.948;2023-03-21T14:54:57;5.13;;;1.90;;
64832;SDS011;51290;45.060;38.948;2023-03-21T14:57:26;3.08;;;1.10;;
64832;SDS011;51290;45.060;38.948;2023-03-21T14:59:56;3.40;;;2.05;;
64832;SDS011;51290;45.060;38.948;2023-03-21T15:02:35;3.20;;;2.00;;
64832;SDS011;51290;45.060;38.948;2023-03-21T15:05:07;4.15;;;2.00;;
64832;SDS011;51290;45.060;38.948;2023-03-21T15:07:52;2.60;;;1.83;;
64832;SDS011;51290;45.060;38.948;2023-03-21T15:10:22;9.27;;;2.58;;
64832;SDS011;51290;45.060;38.948;2023-03-21T15:12:53;3.95;;;2.03;;
64832;SDS011;51290;45.060;38.948;2023-03-21T15:15:22;6.22;;;2.60;;
64832;SDS011;51290;45.060;38.948;2023-03-21T15:17:51;11.13;;;2.97;;
64832;SDS011;51290;45.060;38.948;2023-03-21T15:20:21;2.80;;;2.03;;
64832;SDS011;51290;45.060;38.948;2023-03-21T15:22:52;2.45;;;1.92;;
64832;SDS011;51290;45.060;38.948;2023-03-21T15:25:22;3.63;;;2.40;;
64832;SDS011;51290;45.060;38.948;2023-03-21T15:27:53;3.13;;;2.13;;
64832;SDS011;51290;45.060;38.948;2023-03-21T15:30:21;2.85;;;2.10;;
64832;SDS011;51290;45.060;38.948;2023-03-21T15:32:50;5.03;;;2.42;;
64832;SDS011;51290;45.060;38.948;2023-03-21T15:35:20;6.35;;;2.30;;
64832;SDS011;51290;45.060;38.948;2023-03-21T15:37:51;4.30;;;2.17;;
64832;SDS011;51290;45.060;38.948;2023-03-21T15:40:21;2.05;;;1.70;;
64832;SDS011;51290;45.060;38.948;2023-03-21T15:42:50;3.60;;;2.58;;
64832;SDS011;51290;45.060;38.948;2023-03-21T15:45:20;4.13;;;2.05;;
64832;SDS011;51290;45.060;38.948;2023-03-21T15:52:49;5.55;;;2.42;;
64832;SDS011;51290;45.060;38.948;2023-03-21T15:55:17;12.32;;;2.30;;
64832;SDS011;51290;45.060;38.948;2023-03-21T15:57:51;5.78;;;3.30;;
64832;SDS011;51290;45.060;38.948;2023-03-21T16:00:47;4.53;;;2.57;;
64832;SDS011;51290;45.060;38.948;2023-03-21T16:03:23;2.90;;;2.63;;
64832;SDS011;51290;45.060;38.948;2023-03-21T16:08:32;3.47;;;2.40;;
64832;SDS011;51290;45.060;38.948;2023-03-21T16:11:25;4.00;;;2.33;;
64832;SDS011;51290;45.060;38.948;2023-03-21T16:13:53;2.80;;;2.03;;
64832;SDS011;51290;45.060;38.948;2023-03-21T16:16:21;4.47;;;2.72;;
64832;SDS011;51290;45.060;38.948;2023-03-21T16:18:50;2.40;;;1.98;;
64832;SDS011;51290;45.060;38.948;2023-03-21T16:21:18;2.70;;;2.05;;
64832;SDS011;51290;45.060;38.948;2023-03-21T16:23:46;1.98;;;1.73;;
64832;SDS011;51290;45.060;38.948;2023-03-21T16:26:13;4.45;;;2.42;;
64832;SDS011;51290;45.060;38.948;2023-03-21T16:28:45;6.32;;;3.50;;
64832;SDS011;51290;45.060;38.948;2023-03-21T16:31:12;6.63;;;4.05;;
64832;SDS011;51290;45.060;38.948;2023-03-21T16:33:43;7.95;;;4.20;;
64832;SDS011;51290;45.060;38.948;2023-03-21T16:36:17;14.10;;;6.57;;
64832;SDS011;51290;45.060;38.948;2023-03-21T16:38:46;10.77;;;5.60;;
64832;SDS011;51290;45.060;38.948;2023-03-21T16:41:19;8.73;;;4.55;;
64832;SDS011;51290;45.060;38.948;2023-03-21T16:43:47;7.00;;;4.35;;
64832;SDS011;51290;45.060;38.948;2023-03-21T16:46:14;9.00;;;4.53;;
64832;SDS011;51290;45.060;38.948;2023-03-21T16:48:48;4.90;;;3.50;;